createdAt,value
2022-12-25T00:05:13.028Z,99498.52
2022-12-25T00:15:19.130Z,99514.52
2022-12-25T00:25:25.018Z,99527.64
2022-12-25T00:35:31.257Z,99550.02
2022-12-25T00:45:37.360Z,99564.70
2022-12-25T00:55:43.648Z,99573.63
2022-12-25T01:05:57.791Z,99584.19
2022-12-25T01:16:08.585Z,99592.34
2022-12-25T01:26:16.309Z,99584.04
2022-12-25T01:36:23.942Z,99589.44
2022-12-25T01:46:30.058Z,99595.55
2022-12-25T01:56:38.665Z,99597.13
2022-12-25T02:06:44.782Z,99595.48
2022-12-25T02:16:58.947Z,99598.26
2022-12-25T02:27:15.488Z,99606.77
2022-12-25T02:37:25.340Z,99612.75
2022-12-25T02:47:49.921Z,99625.17
2022-12-25T02:58:30.886Z,99632.34
2022-12-25T03:08:40.676Z,99630.24
2022-12-25T03:18:47.186Z,99637.05
2022-12-25T03:28:53.109Z,99649.44
2022-12-25T03:39:33.458Z,99652.77
2022-12-25T03:50:05.350Z,99653.14
2022-12-25T04:00:30.437Z,99678.00
2022-12-25T04:10:54.399Z,99686.58
2022-12-25T04:21:17.739Z,99698.29
2022-12-25T04:31:41.841Z,99697.73
2022-12-25T04:41:47.959Z,99708.39
2022-12-25T04:51:53.842Z,99710.70
2022-12-25T05:01:59.892Z,99724.34
2022-12-25T05:12:06.871Z,99728.98
2022-12-25T05:22:12.909Z,99728.54
2022-12-25T05:32:18.931Z,99744.86
2022-12-25T05:42:24.838Z,99742.48
2022-12-25T05:52:33.746Z,99748.29
2022-12-25T06:02:39.752Z,99760.69
2022-12-25T06:12:45.689Z,99766.26
2022-12-25T06:22:51.759Z,99768.93
2022-12-25T06:32:59.563Z,99795.70
2022-12-25T06:43:06.105Z,99811.64
2022-12-25T06:53:12.214Z,99828.01
2022-12-25T07:03:21.821Z,99842.75
2022-12-25T07:13:28.229Z,99866.96
2022-12-25T07:23:34.336Z,99886.77
2022-12-25T07:33:40.241Z,99900.10
2022-12-25T07:43:46.351Z,99906.80
2022-12-25T07:53:52.704Z,99906.09
2022-12-25T08:04:00.680Z,99913.65
2022-12-25T08:14:09.054Z,99924.66
2022-12-25T08:24:15.097Z,99926.79
2022-12-25T08:34:21.123Z,99937.90
2022-12-25T08:44:27.028Z,99943.73
2022-12-25T08:54:34.849Z,99949.96
2022-12-25T09:04:40.886Z,99960.73
2022-12-25T09:14:46.780Z,99970.77
2022-12-25T09:24:52.887Z,99971.10
2022-12-25T09:34:58.901Z,99968.66
2022-12-25T09:45:12.507Z,99975.76
2022-12-25T09:55:21.953Z,99971.16
2022-12-25T10:05:57.067Z,99978.11
2022-12-25T10:16:15.789Z,99979.25
2022-12-25T10:26:25.393Z,99972.09
2022-12-25T10:36:32.525Z,99973.33
2022-12-25T10:46:38.545Z,99956.74
2022-12-25T10:56:55.477Z,99948.88
2022-12-25T11:07:06.270Z,99962.42
2022-12-25T11:17:19.111Z,99951.20
2022-12-25T11:27:28.684Z,99949.48
2022-12-25T11:37:39.536Z,99935.10
2022-12-25T11:47:50.019Z,99931.94
2022-12-25T11:58:00.589Z,99925.45
2022-12-25T12:08:10.647Z,99930.71
2022-12-25T12:18:23.980Z,99938.08
2022-12-25T12:28:38.868Z,99950.23
2022-12-25T12:38:47.233Z,99951.36
2022-12-25T12:48:55.762Z,99935.17
2022-12-25T12:59:01.786Z,99936.81
2022-12-25T13:09:18.324Z,99941.04
2022-12-25T13:19:26.988Z,99954.56
2022-12-25T13:29:34.562Z,99956.13
2022-12-25T13:39:48.716Z,99954.48
2022-12-25T13:49:56.685Z,99970.85
2022-12-25T14:00:03.956Z,99965.23
2022-12-25T14:10:15.177Z,99955.98
2022-12-25T14:20:33.902Z,99946.84
2022-12-25T14:30:44.988Z,99958.58
2022-12-25T14:41:01.829Z,99980.85
2022-12-25T14:51:16.271Z,99985.29
2022-12-25T15:01:28.425Z,99966.54
2022-12-25T15:11:34.706Z,99953.50
2022-12-25T15:21:41.026Z,99964.31
2022-12-25T15:31:47.191Z,99985.27
2022-12-25T15:42:11.018Z,99988.74
2022-12-25T15:52:18.358Z,99987.30
2022-12-25T16:02:24.515Z,99973.09
2022-12-25T16:12:30.838Z,99970.90
2022-12-25T16:22:40.044Z,99964.59
2022-12-25T16:32:49.392Z,99944.61
2022-12-25T16:42:55.829Z,99925.09
2022-12-25T16:53:01.694Z,99927.81
2022-12-25T17:03:07.681Z,99900.49
2022-12-25T17:13:13.559Z,99920.85
2022-12-25T17:23:19.455Z,99934.95
2022-12-25T17:33:25.416Z,99916.77
2022-12-25T17:43:31.559Z,99916.15
2022-12-25T17:53:38.964Z,99921.59
2022-12-25T18:03:45.860Z,99898.30
2022-12-25T18:13:53.957Z,99914.11
2022-12-25T18:23:59.886Z,99909.85
2022-12-25T18:34:06.003Z,99886.93
2022-12-25T18:44:11.952Z,99867.36
2022-12-25T18:54:17.832Z,99868.95
2022-12-25T19:04:24.062Z,99861.81
2022-12-25T19:14:30.159Z,99833.73
2022-12-25T19:24:53.640Z,99824.80
2022-12-25T19:35:04.364Z,99815.07
2022-12-25T19:45:11.861Z,99791.98
2022-12-25T19:55:19.023Z,99794.58
2022-12-25T20:05:23.438Z,99787.38
2022-12-25T20:15:29.323Z,99781.95
2022-12-25T20:25:35.757Z,99786.30
2022-12-25T20:35:48.032Z,99783.98
2022-12-25T20:45:54.370Z,99768.20
2022-12-25T20:56:01.453Z,99745.15
2022-12-25T21:06:08.411Z,99742.99
2022-12-25T21:16:16.190Z,99726.35
2022-12-25T21:26:24.680Z,99700.78
2022-12-25T21:36:35.763Z,99695.75
2022-12-25T21:46:41.762Z,99681.50
2022-12-25T21:56:49.292Z,99662.23
2022-12-25T22:07:12.308Z,99640.24
2022-12-25T22:17:36.738Z,99633.61
2022-12-25T22:27:43.814Z,99611.18
2022-12-25T22:37:50.113Z,99592.28
2022-12-25T22:47:56.087Z,99579.95
2022-12-25T22:58:02.063Z,99580.13
2022-12-25T23:08:08.109Z,99577.55
2022-12-25T23:18:31.482Z,99562.10
2022-12-25T23:28:55.059Z,99538.49
2022-12-25T23:39:09.001Z,99531.86
2022-12-25T23:49:15.946Z,99531.58
2022-12-25T23:59:21.913Z,99543.25
